sensor_id;sensor_type;location;lat;lon;timestamp;temperature;humidity
19385;DHT22;9828;54.122;17.974;2022-07-29T00:04:59;15.40;5.30
19385;DHT22;9828;54.122;17.974;2022-07-29T00:10:21;15.30;1.00
19385;DHT22;9828;54.122;17.974;2022-07-29T00:15:42;15.20;3.30
19385;DHT22;9828;54.122;17.974;2022-07-29T00:21:03;15.20;1.00
19385;DHT22;9828;54.122;17.974;2022-07-29T00:26:24;15.10;1.00
19385;DHT22;9828;54.122;17.974;2022-07-29T00:31:48;15.10;1.00
19385;DHT22;9828;54.122;17.974;2022-07-29T00:37:10;15.00;1.00
19385;DHT22;9828;54.122;17.974;2022-07-29T00:42:44;15.00;2.30
19385;DHT22;9828;54.122;17.974;2022-07-29T00:48:05;15.00;7.60
19385;DHT22;9828;54.122;17.974;2022-07-29T00:53:27;14.90;1.00
19385;DHT22;9828;54.122;17.974;2022-07-29T00:58:50;14.90;1.00
19385;DHT22;9828;54.122;17.974;2022-07-29T01:04:12;14.90;12.70
19385;DHT22;9828;54.122;17.974;2022-07-29T01:09:35;14.80;7.90
19385;DHT22;9828;54.122;17.974;2022-07-29T01:14:58;14.80;3.70
19385;DHT22;9828;54.122;17.974;2022-07-29T01:31:51;14.50;10.50
19385;DHT22;9828;54.122;17.974;2022-07-29T01:37:23;14.50;1.00
19385;DHT22;9828;54.122;17.974;2022-07-29T01:42:54;14.40;1.00
19385;DHT22;9828;54.122;17.974;2022-07-29T01:48:21;14.30;1.50
19385;DHT22;9828;54.122;17.974;2022-07-29T01:54:12;14.30;2.50
19385;DHT22;9828;54.122;17.974;2022-07-29T01:59:34;14.20;14.10
19385;DHT22;9828;54.122;17.974;2022-07-29T02:05:15;14.20;25.00
19385;DHT22;9828;54.122;17.974;2022-07-29T02:10:39;14.20;26.30
19385;DHT22;9828;54.122;17.974;2022-07-29T02:16:02;14.10;26.40
19385;DHT22;9828;54.122;17.974;2022-07-29T02:21:26;14.10;35.30
19385;DHT22;9828;54.122;17.974;2022-07-29T02:26:50;14.10;42.20
19385;DHT22;9828;54.122;17.974;2022-07-29T02:32:13;14.10;31.40
19385;DHT22;9828;54.122;17.974;2022-07-29T02:37:36;14.10;33.30
19385;DHT22;9828;54.122;17.974;2022-07-29T02:42:58;14.10;31.00
19385;DHT22;9828;54.122;17.974;2022-07-29T02:48:36;14.10;33.10
19385;DHT22;9828;54.122;17.974;2022-07-29T02:54:01;14.00;48.60
19385;DHT22;9828;54.122;17.974;2022-07-29T02:59:27;14.10;46.50
19385;DHT22;9828;54.122;17.974;2022-07-29T03:04:52;14.00;55.80
19385;DHT22;9828;54.122;17.974;2022-07-29T03:10:13;14.00;64.80
19385;DHT22;9828;54.122;17.974;2022-07-29T03:15:35;14.00;61.00
19385;DHT22;9828;54.122;17.974;2022-07-29T03:20:58;14.00;66.00
19385;DHT22;9828;54.122;17.974;2022-07-29T03:26:19;14.00;71.30
19385;DHT22;9828;54.122;17.974;2022-07-29T03:31:40;14.10;76.80
19385;DHT22;9828;54.122;17.974;2022-07-29T03:37:11;14.10;90.60
19385;DHT22;9828;54.122;17.974;2022-07-29T03:42:34;14.20;96.90
19385;DHT22;9828;54.122;17.974;2022-07-29T03:48:02;14.20;99.90
19385;DHT22;9828;54.122;17.974;2022-07-29T03:53:26;14.40;99.90
19385;DHT22;9828;54.122;17.974;2022-07-29T03:58:49;14.50;99.90
19385;DHT22;9828;54.122;17.974;2022-07-29T04:04:12;14.50;99.90
19385;DHT22;9828;54.122;17.974;2022-07-29T04:09:34;14.60;99.90
19385;DHT22;9828;54.122;17.974;2022-07-29T04:14:55;14.70;99.90
19385;DHT22;9828;54.122;17.974;2022-07-29T04:20:17;14.80;99.90
19385;DHT22;9828;54.122;17.974;2022-07-29T04:25:40;14.90;99.90
19385;DHT22;9828;54.122;17.974;2022-07-29T04:31:02;15.00;99.90
19385;DHT22;9828;54.122;17.974;2022-07-29T04:36:23;15.20;99.90
19385;DHT22;9828;54.122;17.974;2022-07-29T04:41:44;15.20;99.90
19385;DHT22;9828;54.122;17.974;2022-07-29T04:47:08;15.40;99.90
19385;DHT22;9828;54.122;17.974;2022-07-29T04:52:30;15.50;99.90
19385;DHT22;9828;54.122;17.974;2022-07-29T04:57:51;15.60;99.90
19385;DHT22;9828;54.122;17.974;2022-07-29T05:03:12;15.70;99.90
19385;DHT22;9828;54.122;17.974;2022-07-29T05:08:34;15.90;99.90
19385;DHT22;9828;54.122;17.974;2022-07-29T05:13:55;16.00;99.90
19385;DHT22;9828;54.122;17.974;2022-07-29T05:19:17;16.10;99.90
19385;DHT22;9828;54.122;17.974;2022-07-29T05:24:38;16.20;99.90
19385;DHT22;9828;54.122;17.974;2022-07-29T05:30:00;16.40;99.90
19385;DHT22;9828;54.122;17.974;2022-07-29T05:35:21;16.60;99.90
19385;DHT22;9828;54.122;17.974;2022-07-29T05:40:43;16.70;99.90
19385;DHT22;9828;54.122;17.974;2022-07-29T05:46:04;16.90;99.90
19385;DHT22;9828;54.122;17.974;2022-07-29T05:51:25;17.10;39.90
19385;DHT22;9828;54.122;17.974;2022-07-29T05:56:47;17.30;1.80
19385;DHT22;9828;54.122;17.974;2022-07-29T06:02:08;17.40;1.00
19385;DHT22;9828;54.122;17.974;2022-07-29T06:07:30;17.60;1.00
19385;DHT22;9828;54.122;17.974;2022-07-29T06:12:52;17.80;1.00
19385;DHT22;9828;54.122;17.974;2022-07-29T06:18:13;17.80;1.00
19385;DHT22;9828;54.122;17.974;2022-07-29T06:23:34;18.00;1.00
19385;DHT22;9828;54.122;17.974;2022-07-29T06:28:56;18.10;1.00
19385;DHT22;9828;54.122;17.974;2022-07-29T06:34:17;18.10;1.00
19385;DHT22;9828;54.122;17.974;2022-07-29T06:39:40;18.10;1.00
19385;DHT22;9828;54.122;17.974;2022-07-29T06:45:02;18.10;1.00
19385;DHT22;9828;54.122;17.974;2022-07-29T06:50:25;18.40;1.00
19385;DHT22;9828;54.122;17.974;2022-07-29T07:06:34;20.90;41.60
19385;DHT22;9828;54.122;17.974;2022-07-29T07:11:55;21.10;99.90
19385;DHT22;9828;54.122;17.974;2022-07-29T07:17:37;21.70;99.90
19385;DHT22;9828;54.122;17.974;2022-07-29T07:22:59;21.80;99.90
19385;DHT22;9828;54.122;17.974;2022-07-29T07:29:23;22.40;1.00
19385;DHT22;9828;54.122;17.974;2022-07-29T07:34:44;23.50;1.00
19385;DHT22;9828;54.122;17.974;2022-07-29T07:40:06;23.80;26.60
19385;DHT22;9828;54.122;17.974;2022-07-29T07:45:28;23.30;1.00
19385;DHT22;9828;54.122;17.974;2022-07-29T07:50:49;23.10;1.00
19385;DHT22;9828;54.122;17.974;2022-07-29T07:56:11;23.30;1.00
19385;DHT22;9828;54.122;17.974;2022-07-29T08:01:32;23.90;99.90
19385;DHT22;9828;54.122;17.974;2022-07-29T08:06:54;23.60;1.00
19385;DHT22;9828;54.122;17.974;2022-07-29T08:12:16;23.60;1.00
19385;DHT22;9828;54.122;17.974;2022-07-29T08:17:37;23.90;1.00
19385;DHT22;9828;54.122;17.974;2022-07-29T08:22:59;24.50;1.00
19385;DHT22;9828;54.122;17.974;2022-07-29T08:28:20;25.20;1.00
19385;DHT22;9828;54.122;17.974;2022-07-29T08:33:42;25.40;99.90
19385;DHT22;9828;54.122;17.974;2022-07-29T08:39:04;25.70;87.40
19385;DHT22;9828;54.122;17.974;2022-07-29T08:44:25;25.90;1.00
19385;DHT22;9828;54.122;17.974;2022-07-29T08:49:48;26.30;1.00
19385;DHT22;9828;54.122;17.974;2022-07-29T09:00:31;26.80;1.00
19385;DHT22;9828;54.122;17.974;2022-07-29T09:05:53;26.60;1.00
19385;DHT22;9828;54.122;17.974;2022-07-29T09:11:15;27.00;1.00
19385;DHT22;9828;54.122;17.974;2022-07-29T09:16:47;27.40;1.00
19385;DHT22;9828;54.122;17.974;2022-07-29T09:22:29;27.90;1.00
19385;DHT22;9828;54.122;17.974;2022-07-29T09:33:13;28.60;99.90
19385;DHT22;9828;54.122;17.974;2022-07-29T09:38:35;28.40;99.90
19385;DHT22;9828;54.122;17.974;2022-07-29T09:44:05;28.10;99.90
19385;DHT22;9828;54.122;17.974;2022-07-29T09:49:27;28.60;99.90
19385;DHT22;9828;54.122;17.974;2022-07-29T09:54:48;28.70;99.90
19385;DHT22;9828;54.122;17.974;2022-07-29T10:00:15;28.00;99.90
19385;DHT22;9828;54.122;17.974;2022-07-29T10:05:38;27.10;99.90
19385;DHT22;9828;54.122;17.974;2022-07-29T10:11:18;27.40;99.90
19385;DHT22;9828;54.122;17.974;2022-07-29T10:16:40;28.40;99.90
19385;DHT22;9828;54.122;17.974;2022-07-29T10:22:05;28.90;99.90
19385;DHT22;9828;54.122;17.974;2022-07-29T10:27:27;29.40;99.90
19385;DHT22;9828;54.122;17.974;2022-07-29T10:44:14;31.00;99.90
19385;DHT22;9828;54.122;17.974;2022-07-29T10:49:37;31.10;99.90
19385;DHT22;9828;54.122;17.974;2022-07-29T10:55:31;31.00;99.90
19385;DHT22;9828;54.122;17.974;2022-07-29T11:00:54;31.20;99.90
19385;DHT22;9828;54.122;17.974;2022-07-29T11:06:16;30.30;99.90
19385;DHT22;9828;54.122;17.974;2022-07-29T11:11:38;29.00;99.90
19385;DHT22;9828;54.122;17.974;2022-07-29T11:17:05;28.10;99.90
19385;DHT22;9828;54.122;17.974;2022-07-29T11:22:34;27.70;99.90
19385;DHT22;9828;54.122;17.974;2022-07-29T11:28:10;27.50;99.90
19385;DHT22;9828;54.122;17.974;2022-07-29T11:33:34;27.30;99.90
19385;DHT22;9828;54.122;17.974;2022-07-29T11:39:25;27.00;99.90
19385;DHT22;9828;54.122;17.974;2022-07-29T11:44:59;26.70;99.90
19385;DHT22;9828;54.122;17.974;2022-07-29T11:50:29;27.30;99.90
19385;DHT22;9828;54.122;17.974;2022-07-29T11:55:54;27.40;99.90
19385;DHT22;9828;54.122;17.974;2022-07-29T12:01:17;27.30;99.90
19385;DHT22;9828;54.122;17.974;2022-07-29T12:06:39;27.10;99.90
19385;DHT22;9828;54.122;17.974;2022-07-29T12:12:01;26.40;99.90
19385;DHT22;9828;54.122;17.974;2022-07-29T12:22:50;26.90;99.90
19385;DHT22;9828;54.122;17.974;2022-07-29T12:28:19;26.60;99.90
19385;DHT22;9828;54.122;17.974;2022-07-29T12:33:42;26.40;99.90
19385;DHT22;9828;54.122;17.974;2022-07-29T12:39:04;26.70;99.90
19385;DHT22;9828;54.122;17.974;2022-07-29T12:44:54;27.10;99.90
19385;DHT22;9828;54.122;17.974;2022-07-29T12:50:57;26.70;99.90
19385;DHT22;9828;54.122;17.974;2022-07-29T12:56:19;26.10;99.90
19385;DHT22;9828;54.122;17.974;2022-07-29T13:01:53;26.10;99.90
19385;DHT22;9828;54.122;17.974;2022-07-29T13:07:24;25.90;99.90
19385;DHT22;9828;54.122;17.974;2022-07-29T13:13:10;25.50;99.90
19385;DHT22;9828;54.122;17.974;2022-07-29T13:18:34;25.50;99.90
19385;DHT22;9828;54.122;17.974;2022-07-29T13:23:57;25.90;99.90
19385;DHT22;9828;54.122;17.974;2022-07-29T13:29:18;26.00;99.90
19385;DHT22;9828;54.122;17.974;2022-07-29T13:34:40;26.10;99.90
19385;DHT22;9828;54.122;17.974;2022-07-29T13:40:03;26.50;99.90
19385;DHT22;9828;54.122;17.974;2022-07-29T13:45:25;26.40;99.90
19385;DHT22;9828;54.122;17.974;2022-07-29T13:50:47;26.00;99.90
19385;DHT22;9828;54.122;17.974;2022-07-29T13:56:09;25.80;99.90
19385;DHT22;9828;54.122;17.974;2022-07-29T14:01:30;25.90;99.90
19385;DHT22;9828;54.122;17.974;2022-07-29T14:06:52;25.80;99.90
19385;DHT22;9828;54.122;17.974;2022-07-29T14:12:13;25.80;99.90
19385;DHT22;9828;54.122;17.974;2022-07-29T14:17:35;25.90;99.90
19385;DHT22;9828;54.122;17.974;2022-07-29T14:22:56;26.00;99.90
19385;DHT22;9828;54.122;17.974;2022-07-29T14:28:18;26.10;99.90
19385;DHT22;9828;54.122;17.974;2022-07-29T14:38:59;26.00;99.90
19385;DHT22;9828;54.122;17.974;2022-07-29T14:44:20;25.70;99.90
19385;DHT22;9828;54.122;17.974;2022-07-29T14:49:43;25.40;99.90
19385;DHT22;9828;54.122;17.974;2022-07-29T14:55:05;25.20;99.90
19385;DHT22;9828;54.122;17.974;2022-07-29T15:00:26;25.10;99.90
19385;DHT22;9828;54.122;17.974;2022-07-29T15:05:48;24.80;99.90
19385;DHT22;9828;54.122;17.974;2022-07-29T15:11:09;24.70;99.90
19385;DHT22;9828;54.122;17.974;2022-07-29T15:16:34;24.50;99.90
19385;DHT22;9828;54.122;17.974;2022-07-29T15:21:56;24.40;99.90
19385;DHT22;9828;54.122;17.974;2022-07-29T15:27:19;24.60;99.90
19385;DHT22;9828;54.122;17.974;2022-07-29T15:32:40;24.80;99.90
19385;DHT22;9828;54.122;17.974;2022-07-29T15:38:02;24.60;99.90
19385;DHT22;9828;54.122;17.974;2022-07-29T15:43:24;24.50;99.90
19385;DHT22;9828;54.122;17.974;2022-07-29T15:48:45;24.30;99.90
19385;DHT22;9828;54.122;17.974;2022-07-29T15:54:07;24.20;99.90
19385;DHT22;9828;54.122;17.974;2022-07-29T15:59:28;23.90;99.90
19385;DHT22;9828;54.122;17.974;2022-07-29T16:04:50;23.70;99.90
19385;DHT22;9828;54.122;17.974;2022-07-29T16:10:11;23.30;99.90
19385;DHT22;9828;54.122;17.974;2022-07-29T16:15:32;23.30;99.90
19385;DHT22;9828;54.122;17.974;2022-07-29T16:20:54;23.20;99.90
19385;DHT22;9828;54.122;17.974;2022-07-29T16:26:16;23.20;99.90
19385;DHT22;9828;54.122;17.974;2022-07-29T16:31:37;23.20;99.90
19385;DHT22;9828;54.122;17.974;2022-07-29T16:36:58;23.30;99.90
19385;DHT22;9828;54.122;17.974;2022-07-29T16:42:20;23.30;99.90
19385;DHT22;9828;54.122;17.974;2022-07-29T16:47:56;23.10;99.90
19385;DHT22;9828;54.122;17.974;2022-07-29T16:53:19;23.00;99.90
19385;DHT22;9828;54.122;17.974;2022-07-29T16:58:41;22.90;99.90
19385;DHT22;9828;54.122;17.974;2022-07-29T17:04:03;22.70;99.90
19385;DHT22;9828;54.122;17.974;2022-07-29T17:09:27;22.60;99.90
19385;DHT22;9828;54.122;17.974;2022-07-29T17:20:10;22.40;1.00
19385;DHT22;9828;54.122;17.974;2022-07-29T17:25:32;22.00;99.90
19385;DHT22;9828;54.122;17.974;2022-07-29T17:30:55;21.90;99.90
19385;DHT22;9828;54.122;17.974;2022-07-29T17:36:17;21.80;99.90
19385;DHT22;9828;54.122;17.974;2022-07-29T17:41:44;21.50;99.90
19385;DHT22;9828;54.122;17.974;2022-07-29T17:47:07;21.30;99.90
19385;DHT22;9828;54.122;17.974;2022-07-29T17:52:29;21.20;99.90
19385;DHT22;9828;54.122;17.974;2022-07-29T17:57:50;21.10;99.90
19385;DHT22;9828;54.122;17.974;2022-07-29T18:03:11;21.00;1.00
19385;DHT22;9828;54.122;17.974;2022-07-29T18:08:32;20.70;1.00
19385;DHT22;9828;54.122;17.974;2022-07-29T18:13:54;20.60;1.00
19385;DHT22;9828;54.122;17.974;2022-07-29T18:19:16;20.40;1.00
19385;DHT22;9828;54.122;17.974;2022-07-29T18:24:37;20.20;1.00
19385;DHT22;9828;54.122;17.974;2022-07-29T18:29:58;20.10;99.90
19385;DHT22;9828;54.122;17.974;2022-07-29T18:35:20;20.00;1.00
19385;DHT22;9828;54.122;17.974;2022-07-29T18:40:41;19.80;1.00
19385;DHT22;9828;54.122;17.974;2022-07-29T18:46:03;19.70;1.00
19385;DHT22;9828;54.122;17.974;2022-07-29T18:51:26;19.50;99.90
19385;DHT22;9828;54.122;17.974;2022-07-29T18:56:48;19.40;1.00
19385;DHT22;9828;54.122;17.974;2022-07-29T19:02:09;19.20;1.00
19385;DHT22;9828;54.122;17.974;2022-07-29T19:07:31;19.10;99.90
19385;DHT22;9828;54.122;17.974;2022-07-29T19:12:52;19.00;1.00
19385;DHT22;9828;54.122;17.974;2022-07-29T19:18:14;19.00;99.90
19385;DHT22;9828;54.122;17.974;2022-07-29T19:23:36;18.90;1.00
19385;DHT22;9828;54.122;17.974;2022-07-29T19:28:57;18.70;1.00
19385;DHT22;9828;54.122;17.974;2022-07-29T19:34:19;18.50;1.00
19385;DHT22;9828;54.122;17.974;2022-07-29T19:39:40;18.50;1.00
19385;DHT22;9828;54.122;17.974;2022-07-29T19:45:01;18.30;1.00
19385;DHT22;9828;54.122;17.974;2022-07-29T19:50:23;18.20;1.00
19385;DHT22;9828;54.122;17.974;2022-07-29T19:55:46;18.20;99.90
19385;DHT22;9828;54.122;17.974;2022-07-29T20:01:07;18.10;99.90
19385;DHT22;9828;54.122;17.974;2022-07-29T20:06:29;18.00;1.00
19385;DHT22;9828;54.122;17.974;2022-07-29T20:11:50;17.90;1.00
19385;DHT22;9828;54.122;17.974;2022-07-29T20:17:11;17.80;1.00
19385;DHT22;9828;54.122;17.974;2022-07-29T20:22:33;17.70;90.50
19385;DHT22;9828;54.122;17.974;2022-07-29T20:27:57;17.60;99.90
19385;DHT22;9828;54.122;17.974;2022-07-29T20:33:19;17.50;99.90
19385;DHT22;9828;54.122;17.974;2022-07-29T20:51:39;17.40;99.90
19385;DHT22;9828;54.122;17.974;2022-07-29T20:57:01;17.30;1.00
19385;DHT22;9828;54.122;17.974;2022-07-29T21:02:23;17.20;1.00
19385;DHT22;9828;54.122;17.974;2022-07-29T21:07:44;17.20;1.00
19385;DHT22;9828;54.122;17.974;2022-07-29T21:13:06;17.10;1.00
19385;DHT22;9828;54.122;17.974;2022-07-29T21:18:27;17.10;1.00
19385;DHT22;9828;54.122;17.974;2022-07-29T21:23:52;17.00;1.00
19385;DHT22;9828;54.122;17.974;2022-07-29T21:29:14;16.90;1.00
19385;DHT22;9828;54.122;17.974;2022-07-29T21:34:35;16.90;1.00
19385;DHT22;9828;54.122;17.974;2022-07-29T21:39:57;16.90;1.00
19385;DHT22;9828;54.122;17.974;2022-07-29T21:45:18;16.80;1.00
19385;DHT22;9828;54.122;17.974;2022-07-29T21:50:39;16.70;1.00
19385;DHT22;9828;54.122;17.974;2022-07-29T21:56:01;16.70;1.00
19385;DHT22;9828;54.122;17.974;2022-07-29T22:01:23;16.70;1.00
19385;DHT22;9828;54.122;17.974;2022-07-29T22:06:44;16.70;1.00
19385;DHT22;9828;54.122;17.974;2022-07-29T22:12:05;16.70;1.00
19385;DHT22;9828;54.122;17.974;2022-07-29T22:17:27;16.70;1.00
19385;DHT22;9828;54.122;17.974;2022-07-29T22:22:48;16.70;1.00
19385;DHT22;9828;54.122;17.974;2022-07-29T22:28:10;16.70;1.00
19385;DHT22;9828;54.122;17.974;2022-07-29T22:33:31;16.60;1.00
19385;DHT22;9828;54.122;17.974;2022-07-29T22:38:52;16.70;1.00
19385;DHT22;9828;54.122;17.974;2022-07-29T22:44:14;16.70;1.00
19385;DHT22;9828;54.122;17.974;2022-07-29T22:49:35;16.70;1.00
19385;DHT22;9828;54.122;17.974;2022-07-29T22:54:56;16.70;1.00
19385;DHT22;9828;54.122;17.974;2022-07-29T23:00:18;16.60;1.00
19385;DHT22;9828;54.122;17.974;2022-07-29T23:05:39;16.60;1.00
19385;DHT22;9828;54.122;17.974;2022-07-29T23:11:00;16.50;1.00
19385;DHT22;9828;54.122;17.974;2022-07-29T23:16:21;16.50;1.00
19385;DHT22;9828;54.122;17.974;2022-07-29T23:21:43;16.40;1.00
19385;DHT22;9828;54.122;17.974;2022-07-29T23:27:04;16.40;1.00
19385;DHT22;9828;54.122;17.974;2022-07-29T23:32:26;16.40;1.00
19385;DHT22;9828;54.122;17.974;2022-07-29T23:37:47;16.40;1.00
19385;DHT22;9828;54.122;17.974;2022-07-29T23:43:09;16.30;1.00
19385;DHT22;9828;54.122;17.974;2022-07-29T23:48:30;16.30;1.00
19385;DHT22;9828;54.122;17.974;2022-07-29T23:53:51;16.30;1.00
19385;DHT22;9828;54.122;17.974;2022-07-29T23:59:14;16.20;1.00
